Airfield :







YOU CAN JOIN US ON...

 
LOGIN :

Register | Disclaimer

   EN    FR    IT 

 









Legend :    VFR   Marginal VFR   IFR   Intensive IFR   Very Intensive IFR
Visi :
Ceiling :
>= 8 km
>= 3000ft
5 to 8 km
1000 to 3000 ft
1500m to 5 km
500 to 1000 ft
800 to 1500m
200 to 500 ft
< 800m
< 200 ft
Symbols :   Thunderstorms  Fog  Heavy snow  Heavy precipitations  Wind > 20 kt






- Airport Elevation : 23 ft
- IATA code : STT


TIST - King

CURRENT METAR :
  • 150753Z AUTO 08004KT 10SM CLR 27/23 A2993 RMK AO2 SLP135 T02670228 $

EXPIRED METARs :
  • 150653Z AUTO 05003KT 10SM CLR 27/23 A2993 RMK AO2 SLP135 T02670228 $
  • 150553Z AUTO 08005KT 10SM CLR 27/23 A2995 RMK AO2 SLP142 60000 T02670228 10278 20267 58011 $

TAF TIST
Valid from the 15 at 06:00 until the 16 at 06:00 UTC


150531Z 1506/1606 05007KT P6SM VCSH SCT025 SCT050
FM151500 12012KT P6SM VCTS SCT025CB SCT050
FM152200 08008KT P6SM VCSH SCT025 SCT050



MET'MAP, your aeronautical weather chart ! - Copyright ORBIFLY December 2007 - Disclaimer

ORBIFLY MET'MAP TEAM :

Programming & Development : Alexandra Zaïnal
Concept & Development : Baudouin d'Aumeries
Co-Development & Prog : Marc-Olivier Méhu
Technical & hardware support : Manuel Goepfert

Contact : metmap@orbifly.com




SOURCES & CREDITS :

   NOAA